Terminal Aerodrome Forecast
Issued by NWS Buffalo, NY

Current Version | Previous Version | Text Only | Print | Product List | Glossary On
Versions: 1 2 3 4 5 6 7 8 9 10 11 12 13 14 15 16 17 18 19 20 21 22 23 24 25
000
FTUS41 KBUF 260300 AAA
TAFBUF
TAF AMD
KBUF 260327Z 2603/2624 22006KT P6SM SCT190 BKN280
     FM260700 20004KT P6SM BKN120
     FM261300 21008KT P6SM BKN090
     FM261500 22011KT P6SM BKN070=

USA.gov is the U.S. government's official web portal to all federal, state and local government web resources and services.